createdAt,value
2022-09-23T00:01:34.525Z,19.58
2022-09-23T00:04:03.222Z,19.59
2022-09-23T00:06:31.843Z,19.57
2022-09-23T00:09:00.662Z,19.56
2022-09-23T00:11:29.831Z,19.51
2022-09-23T00:14:00.694Z,19.38
2022-09-23T00:16:35.592Z,19.34
2022-09-23T00:19:04.983Z,19.33
2022-09-23T00:21:33.565Z,19.22
2022-09-23T00:24:02.504Z,19.15
2022-09-23T00:26:30.499Z,19.15
2022-09-23T00:28:59.059Z,19.10
2022-09-23T00:31:28.616Z,19.05
2022-09-23T00:34:02.477Z,18.95
2022-09-23T00:36:33.527Z,18.92
2022-09-23T00:39:04.161Z,18.86
2022-09-23T00:41:33.369Z,18.66
2022-09-23T00:44:02.808Z,18.55
2022-09-23T00:46:38.883Z,18.35
2022-09-23T00:49:36.466Z,18.14
2022-09-23T00:52:12.952Z,17.98
2022-09-23T00:54:42.370Z,17.88
2022-09-23T00:57:12.828Z,17.71
2022-09-23T00:59:41.626Z,17.60
2022-09-23T01:02:11.160Z,17.36
2022-09-23T01:04:40.502Z,17.13
2022-09-23T01:07:09.059Z,16.94
2022-09-23T01:09:38.489Z,16.81
2022-09-23T01:12:45.120Z,16.61
2022-09-23T01:15:24.036Z,16.42
2022-09-23T01:18:18.980Z,16.21
2022-09-23T01:21:15.370Z,16.08
2022-09-23T01:24:09.179Z,15.83
2022-09-23T01:27:00.732Z,15.68
2022-09-23T01:29:37.759Z,15.47
2022-09-23T01:32:24.190Z,15.19
2022-09-23T01:35:04.247Z,14.86
2022-09-23T01:37:35.415Z,14.63
2022-09-23T01:40:11.445Z,14.52
2022-09-23T01:42:58.844Z,14.37
2022-09-23T01:45:32.991Z,14.16
2022-09-23T01:48:24.668Z,13.98
2022-09-23T01:51:03.879Z,13.86
2022-09-23T01:53:40.440Z,13.66
2022-09-23T01:56:23.373Z,13.71
2022-09-23T01:59:03.694Z,13.38
2022-09-23T02:01:42.116Z,13.38
2022-09-23T02:04:23.791Z,13.24
2022-09-23T02:07:04.741Z,12.99
2022-09-23T02:09:39.132Z,12.78
2022-09-23T02:12:13.679Z,12.77
2022-09-23T02:14:57.990Z,12.94
2022-09-23T02:17:36.423Z,12.80
2022-09-23T02:20:07.421Z,12.34
2022-09-23T02:22:58.373Z,12.16
2022-09-23T02:25:37.019Z,12.07
2022-09-23T02:28:34.152Z,12.11
2022-09-23T02:31:11.452Z,12.22
2022-09-23T02:34:01.791Z,12.36
2022-09-23T02:36:39.040Z,12.41
2022-09-23T02:39:12.905Z,11.91
2022-09-23T02:42:11.325Z,11.83
2022-09-23T02:44:39.948Z,11.72
2022-09-23T02:47:09.053Z,11.82
2022-09-23T02:49:37.927Z,11.73
2022-09-23T02:52:08.863Z,11.80
2022-09-23T02:54:38.945Z,11.62
2022-09-23T02:57:09.773Z,11.49
2022-09-23T02:59:39.108Z,11.34
2022-09-23T03:02:27.817Z,11.34
2022-09-23T03:05:28.638Z,11.22
2022-09-23T03:08:16.350Z,11.20
2022-09-23T03:10:48.463Z,11.19
2022-09-23T03:14:01.174Z,11.02
2022-09-23T03:16:57.532Z,10.91
2022-09-23T03:19:46.329Z,10.89
2022-09-23T03:22:31.529Z,10.88
2022-09-23T03:25:10.008Z,10.93
2022-09-23T03:27:40.395Z,10.92
2022-09-23T03:30:09.789Z,10.94
2022-09-23T03:32:39.799Z,10.96
2022-09-23T03:35:09.049Z,11.01
2022-09-23T03:37:43.416Z,11.11
2022-09-23T03:40:16.497Z,11.21
2022-09-23T03:42:45.425Z,11.38
2022-09-23T03:45:20.324Z,11.41
2022-09-23T03:47:49.116Z,11.37
2022-09-23T03:50:20.498Z,11.47
2022-09-23T03:52:50.624Z,11.56
2022-09-23T03:55:20.625Z,11.61
2022-09-23T03:57:49.884Z,11.71
2022-09-23T04:00:18.669Z,11.75
2022-09-23T04:02:47.288Z,11.91
2022-09-23T04:05:16.230Z,12.04
2022-09-23T04:07:44.927Z,12.07
2022-09-23T04:10:13.550Z,12.11
2022-09-23T04:12:42.200Z,12.14
2022-09-23T04:15:11.072Z,12.12
2022-09-23T04:17:39.384Z,12.08
2022-09-23T04:20:08.035Z,12.06
2022-09-23T04:22:36.839Z,11.97
2022-09-23T04:25:06.025Z,11.95
2022-09-23T04:27:37.725Z,11.91
2022-09-23T04:30:07.674Z,11.83
2022-09-23T04:32:36.247Z,11.81
2022-09-23T04:35:05.265Z,11.75
2022-09-23T04:37:33.935Z,11.73
2022-09-23T04:40:02.652Z,11.55
2022-09-23T04:42:32.115Z,11.38
2022-09-23T04:45:00.447Z,11.30
2022-09-23T04:47:29.537Z,11.25
2022-09-23T04:49:59.877Z,11.24
2022-09-23T04:52:28.885Z,11.21
2022-09-23T04:54:57.395Z,11.06
2022-09-23T04:57:25.951Z,11.01
2022-09-23T04:59:56.257Z,10.83
2022-09-23T05:02:25.989Z,10.83
2022-09-23T05:04:54.579Z,10.73
2022-09-23T05:07:23.155Z,10.75
2022-09-23T05:09:51.778Z,10.85
2022-09-23T05:12:20.095Z,10.89
2022-09-23T05:14:48.637Z,10.85
2022-09-23T05:17:17.559Z,10.83
2022-09-23T05:19:46.178Z,10.82
2022-09-23T05:22:14.504Z,10.78
2022-09-23T05:24:42.985Z,10.75
2022-09-23T05:27:11.607Z,10.75
2022-09-23T05:29:40.471Z,10.69
2022-09-23T05:32:09.274Z,10.62
2022-09-23T05:34:37.762Z,10.59
2022-09-23T05:37:06.651Z,10.50
2022-09-23T05:39:38.036Z,10.45
2022-09-23T05:42:06.963Z,10.37
2022-09-23T05:44:35.635Z,10.31
2022-09-23T05:47:04.183Z,10.30
2022-09-23T05:49:55.179Z,10.27
2022-09-23T05:52:21.407Z,10.21
2022-09-23T05:54:50.866Z,9.97
2022-09-23T05:57:19.951Z,9.92
2022-09-23T05:59:48.985Z,9.91
2022-09-23T06:02:17.371Z,9.87
2022-09-23T06:04:46.716Z,9.81
2022-09-23T06:07:15.224Z,9.73
2022-09-23T06:09:43.641Z,9.64
2022-09-23T06:12:12.156Z,9.49
2022-09-23T06:14:40.795Z,9.41
2022-09-23T06:17:09.490Z,9.31
2022-09-23T06:19:38.178Z,9.32
2022-09-23T06:22:06.814Z,9.30
2022-09-23T06:24:35.559Z,9.21
2022-09-23T06:27:04.191Z,9.18
2022-09-23T06:29:34.972Z,9.15
2022-09-23T06:32:04.318Z,9.10
2022-09-23T06:34:41.947Z,9.04
2022-09-23T06:37:19.867Z,8.96
2022-09-23T06:39:49.683Z,8.88
2022-09-23T06:42:18.420Z,8.89
2022-09-23T06:44:46.732Z,8.78
2022-09-23T06:47:15.461Z,8.79
2022-09-23T06:49:44.412Z,8.82
2022-09-23T06:52:12.921Z,8.79
2022-09-23T06:54:41.441Z,8.69
2022-09-23T06:57:11.486Z,8.69
2022-09-23T06:59:40.133Z,8.65
2022-09-23T07:02:10.920Z,8.76
2022-09-23T07:04:39.764Z,8.76
2022-09-23T07:07:08.283Z,8.76
2022-09-23T07:09:36.301Z,8.61
2022-09-23T07:12:04.657Z,8.61
2022-09-23T07:14:33.463Z,8.50
2022-09-23T07:17:02.255Z,8.48
2022-09-23T07:19:30.831Z,8.41
2022-09-23T07:21:59.430Z,8.33
2022-09-23T07:24:27.993Z,8.18
2022-09-23T07:26:56.823Z,8.14
2022-09-23T07:29:25.335Z,7.95
2022-09-23T07:31:58.606Z,7.88
2022-09-23T07:34:31.990Z,7.80
2022-09-23T07:37:00.577Z,7.85
2022-09-23T07:39:29.117Z,7.84
2022-09-23T07:41:58.047Z,7.72
2022-09-23T07:44:26.913Z,7.73
2022-09-23T07:46:55.258Z,7.69
2022-09-23T07:49:23.828Z,7.57
2022-09-23T07:51:52.748Z,7.43
2022-09-23T07:54:21.875Z,7.39
2022-09-23T07:56:50.199Z,7.23
2022-09-23T07:59:20.282Z,7.25
2022-09-23T08:01:55.758Z,7.27
2022-09-23T08:04:26.268Z,7.15
2022-09-23T08:06:58.331Z,7.13
2022-09-23T08:09:30.493Z,7.12
2022-09-23T08:11:59.030Z,7.05
2022-09-23T08:14:28.065Z,6.99
2022-09-23T08:16:56.857Z,7.02
2022-09-23T08:19:25.406Z,7.00
2022-09-23T08:21:54.014Z,6.90
2022-09-23T08:24:25.407Z,6.81
2022-09-23T08:26:55.776Z,6.73
2022-09-23T08:29:26.306Z,6.73
2022-09-23T08:31:55.388Z,6.75
2022-09-23T08:34:24.921Z,6.68
2022-09-23T08:36:53.694Z,6.63
2022-09-23T08:39:23.810Z,6.61
2022-09-23T08:41:59.222Z,6.49
2022-09-23T08:44:50.813Z,6.55
2022-09-23T08:47:31.094Z,6.59
2022-09-23T08:50:02.332Z,6.58
2022-09-23T08:52:48.664Z,6.53
2022-09-23T08:55:18.888Z,6.45
2022-09-23T08:58:25.306Z,6.41
2022-09-23T09:01:18.762Z,6.84
2022-09-23T09:03:55.064Z,6.64
2022-09-23T09:06:53.661Z,6.77
2022-09-23T09:09:32.023Z,6.59
2022-09-23T09:12:06.188Z,6.70
2022-09-23T09:14:44.601Z,6.80
2022-09-23T09:17:22.418Z,6.76
2022-09-23T09:19:59.308Z,6.87
2022-09-23T09:22:55.195Z,6.95
2022-09-23T09:25:34.679Z,6.91
2022-09-23T09:28:05.092Z,6.76
2022-09-23T09:30:36.332Z,6.75
2022-09-23T09:33:15.235Z,6.77
2022-09-23T09:35:47.170Z,6.59
2022-09-23T09:38:16.230Z,6.41
2022-09-23T09:40:48.929Z,6.45
2022-09-23T09:43:26.939Z,6.51
2022-09-23T09:46:35.314Z,6.35
2022-09-23T09:49:44.675Z,6.31
2022-09-23T09:52:16.706Z,6.51
2022-09-23T09:54:46.049Z,6.55
2022-09-23T09:57:38.169Z,6.45
2022-09-23T10:00:44.251Z,6.31
2022-09-23T10:03:15.701Z,6.30
2022-09-23T10:05:46.940Z,6.54
2022-09-23T10:08:24.670Z,6.43
2022-09-23T10:10:57.254Z,6.41
2022-09-23T10:13:26.266Z,6.33
2022-09-23T10:15:56.159Z,6.69
2022-09-23T10:18:33.224Z,6.54
2022-09-23T10:21:10.979Z,6.64
2022-09-23T10:23:53.823Z,6.60
2022-09-23T10:26:38.782Z,6.56
2022-09-23T10:29:31.867Z,6.51
2022-09-23T10:32:22.112Z,6.45
2022-09-23T10:34:55.864Z,6.40
2022-09-23T10:37:38.492Z,6.40
2022-09-23T10:41:02.966Z,6.50
2022-09-23T10:44:18.387Z,6.66
2022-09-23T10:47:17.157Z,6.44
2022-09-23T10:50:18.531Z,6.44
2022-09-23T10:53:06.046Z,6.48
2022-09-23T10:56:17.528Z,6.43
2022-09-23T10:59:07.745Z,6.42
2022-09-23T11:02:04.282Z,6.45
2022-09-23T11:04:55.949Z,6.47
2022-09-23T11:08:07.253Z,6.36
2022-09-23T11:11:02.878Z,6.27
2022-09-23T11:13:59.454Z,6.27
2022-09-23T11:16:42.900Z,6.23
2022-09-23T11:19:23.135Z,6.19
2022-09-23T11:22:33.561Z,6.16
2022-09-23T11:25:25.783Z,6.26
2022-09-23T11:28:09.755Z,6.47
2022-09-23T11:31:03.042Z,6.59
2022-09-23T11:33:51.127Z,6.71
2022-09-23T11:36:45.673Z,6.80
2022-09-23T11:39:27.781Z,6.89
2022-09-23T11:41:58.656Z,6.93
2022-09-23T11:44:30.551Z,7.01
2022-09-23T11:47:15.573Z,7.05
2022-09-23T11:49:49.443Z,7.08
2022-09-23T11:52:27.008Z,7.03
2022-09-23T11:55:22.586Z,6.97
2022-09-23T11:58:22.379Z,6.84
2022-09-23T12:01:35.223Z,6.84
2022-09-23T12:04:35.269Z,6.89
2022-09-23T12:07:14.275Z,6.86
2022-09-23T12:10:07.288Z,6.82
2022-09-23T12:13:00.423Z,6.77
2022-09-23T12:15:47.461Z,6.75
2022-09-23T12:18:37.134Z,6.75
2022-09-23T12:21:22.427Z,6.76
2022-09-23T12:24:35.129Z,6.76
2022-09-23T12:27:08.587Z,6.76
2022-09-23T12:29:39.295Z,6.75
2022-09-23T12:32:11.132Z,6.83
2022-09-23T12:34:50.418Z,6.82
2022-09-23T12:37:29.340Z,6.97
2022-09-23T12:40:20.329Z,7.00
2022-09-23T12:42:49.884Z,6.97
2022-09-23T12:45:33.895Z,6.96
2022-09-23T12:48:05.500Z,6.94
2022-09-23T12:51:06.673Z,6.88
2022-09-23T12:53:35.236Z,6.75
2022-09-23T12:56:20.196Z,6.71
2022-09-23T12:58:48.737Z,6.71
2022-09-23T13:01:18.453Z,6.60
2022-09-23T13:04:14.148Z,6.90
2022-09-23T13:06:45.532Z,6.93
2022-09-23T13:09:33.301Z,6.85
2022-09-23T13:12:08.063Z,6.96
2022-09-23T13:14:39.259Z,7.01
2022-09-23T13:17:08.016Z,7.03
2022-09-23T13:19:38.842Z,6.97
2022-09-23T13:22:12.408Z,6.90
2022-09-23T13:24:41.372Z,6.83
2022-09-23T13:27:35.754Z,6.63
2022-09-23T13:30:23.651Z,6.39
2022-09-23T13:33:19.516Z,6.36
2022-09-23T13:35:54.522Z,6.44
2022-09-23T13:38:29.399Z,6.44
2022-09-23T13:41:06.643Z,6.43
2022-09-23T13:43:43.766Z,6.46
2022-09-23T13:46:20.854Z,6.43
2022-09-23T13:48:53.396Z,6.31
2022-09-23T13:51:36.100Z,6.27
2022-09-23T13:54:06.475Z,6.26
2022-09-23T13:56:36.575Z,6.22
2022-09-23T13:59:30.088Z,6.22
2022-09-23T14:02:16.535Z,6.35
2022-09-23T14:04:45.907Z,6.45
2022-09-23T14:07:17.266Z,6.68
2022-09-23T14:09:51.455Z,6.91
2022-09-23T14:12:23.513Z,7.09
2022-09-23T14:14:54.214Z,7.36
2022-09-23T14:17:24.696Z,7.58
2022-09-23T14:19:53.452Z,7.75
2022-09-23T14:22:30.521Z,7.85
2022-09-23T14:24:59.778Z,7.96
2022-09-23T14:27:38.195Z,8.02
2022-09-23T14:30:07.403Z,8.15
2022-09-23T14:32:36.251Z,8.28
2022-09-23T14:35:05.785Z,8.37
2022-09-23T14:37:58.563Z,8.48
2022-09-23T14:40:54.652Z,8.61
2022-09-23T14:43:30.336Z,8.67
2022-09-23T14:46:00.484Z,8.75
2022-09-23T14:48:34.567Z,8.78
2022-09-23T14:51:11.969Z,8.92
2022-09-23T14:53:44.164Z,9.08
2022-09-23T14:56:21.877Z,9.20
2022-09-23T14:58:56.675Z,9.32
2022-09-23T15:01:35.973Z,9.42
2022-09-23T15:04:23.150Z,9.42
2022-09-23T15:07:17.311Z,9.56
2022-09-23T15:09:47.062Z,9.73
2022-09-23T15:12:20.208Z,9.86
2022-09-23T15:14:55.531Z,9.96
2022-09-23T15:17:25.052Z,10.05
2022-09-23T15:20:06.872Z,10.14
2022-09-23T15:22:49.898Z,10.18
2022-09-23T15:25:20.814Z,10.28
2022-09-23T15:28:12.403Z,10.42
2022-09-23T15:30:41.653Z,10.54
2022-09-23T15:33:17.849Z,10.69
2022-09-23T15:35:50.648Z,10.82
2022-09-23T15:38:19.452Z,10.94
2022-09-23T15:40:48.462Z,11.10
2022-09-23T15:43:28.347Z,11.29
2022-09-23T15:46:00.252Z,11.38
2022-09-23T15:48:38.381Z,11.56
2022-09-23T15:51:09.299Z,11.75
2022-09-23T15:53:40.279Z,11.95
2022-09-23T15:56:09.010Z,12.15
2022-09-23T15:58:38.530Z,12.37
2022-09-23T16:01:07.886Z,12.54
2022-09-23T16:03:36.997Z,12.75
2022-09-23T16:06:08.250Z,12.89
2022-09-23T16:08:36.996Z,13.06
2022-09-23T16:11:07.175Z,13.14
2022-09-23T16:13:35.818Z,13.06
2022-09-23T16:16:05.005Z,13.14
2022-09-23T16:18:34.007Z,13.13
2022-09-23T16:21:02.770Z,13.24
2022-09-23T16:23:38.861Z,13.40
2022-09-23T16:26:19.246Z,13.54
2022-09-23T16:28:49.568Z,13.67
2022-09-23T16:31:18.683Z,13.79
2022-09-23T16:33:48.822Z,13.83
2022-09-23T16:36:32.630Z,13.86
2022-09-23T16:39:04.198Z,13.84
2022-09-23T16:41:33.976Z,13.84
2022-09-23T16:44:05.880Z,13.73
2022-09-23T16:46:35.284Z,13.69
2022-09-23T16:49:04.599Z,13.58
2022-09-23T16:51:39.325Z,13.63
2022-09-23T16:54:14.459Z,13.65
2022-09-23T16:56:45.572Z,13.48
2022-09-23T16:59:15.684Z,13.41
2022-09-23T17:02:03.077Z,13.31
2022-09-23T17:04:31.676Z,13.47
2022-09-23T17:07:00.502Z,13.51
2022-09-23T17:09:31.485Z,13.49
2022-09-23T17:12:13.154Z,13.43
2022-09-23T17:14:42.061Z,13.43
2022-09-23T17:17:10.779Z,13.44
2022-09-23T17:19:42.601Z,13.13
2022-09-23T17:22:15.231Z,13.04
2022-09-23T17:24:44.073Z,13.22
2022-09-23T17:27:12.627Z,13.38
2022-09-23T17:29:41.148Z,13.45
2022-09-23T17:32:09.224Z,13.40
2022-09-23T17:34:37.739Z,13.40
2022-09-23T17:37:06.502Z,13.42
2022-09-23T17:39:35.099Z,13.52
2022-09-23T17:42:04.801Z,13.38
2022-09-23T17:44:34.568Z,13.46
2022-09-23T17:47:04.775Z,13.42
2022-09-23T17:49:36.582Z,13.55
2022-09-23T17:52:06.974Z,13.56
2022-09-23T17:54:37.487Z,13.60
2022-09-23T17:57:06.195Z,13.67
2022-09-23T17:59:35.057Z,13.64
2022-09-23T18:02:03.661Z,13.61
2022-09-23T18:04:32.279Z,13.70
2022-09-23T18:07:01.007Z,13.75
2022-09-23T18:09:29.868Z,13.79
2022-09-23T18:11:59.049Z,13.84
2022-09-23T18:14:27.684Z,14.10
2022-09-23T18:16:56.588Z,14.32
2022-09-23T18:19:25.870Z,14.57
2022-09-23T18:21:57.395Z,14.75
2022-09-23T18:24:34.190Z,14.73
2022-09-23T18:27:03.372Z,15.10
2022-09-23T18:29:32.793Z,15.17
2022-09-23T18:32:01.458Z,15.04
2022-09-23T18:34:30.300Z,14.98
2022-09-23T18:36:58.943Z,14.88
2022-09-23T18:39:27.577Z,14.78
2022-09-23T18:41:56.853Z,14.74
2022-09-23T18:44:25.591Z,14.85
2022-09-23T18:46:54.323Z,15.00
2022-09-23T18:49:41.176Z,14.99
2022-09-23T18:52:09.688Z,15.32
2022-09-23T18:54:38.233Z,15.21
2022-09-23T18:57:06.924Z,15.31
2022-09-23T18:59:35.525Z,15.47
2022-09-23T19:02:03.664Z,15.45
2022-09-23T19:04:32.317Z,15.39
2022-09-23T19:07:00.948Z,15.63
2022-09-23T19:09:29.540Z,15.73
2022-09-23T19:11:58.982Z,15.78
2022-09-23T19:14:28.030Z,16.19
2022-09-23T19:16:56.063Z,16.74
2022-09-23T19:19:24.834Z,16.83
2022-09-23T19:21:53.920Z,16.49
2022-09-23T19:24:22.461Z,16.36
2022-09-23T19:26:51.623Z,16.38
2022-09-23T19:29:23.005Z,16.73
2022-09-23T19:31:52.087Z,16.98
2022-09-23T19:34:27.285Z,17.27
2022-09-23T19:37:00.573Z,17.34
2022-09-23T19:39:32.857Z,17.41
2022-09-23T19:42:01.234Z,17.31
2022-09-23T19:44:29.983Z,16.83
2022-09-23T19:46:59.030Z,16.39
2022-09-23T19:49:27.920Z,16.79
2022-09-23T19:51:56.647Z,17.01
2022-09-23T19:54:28.383Z,17.22
2022-09-23T19:56:57.003Z,17.02
2022-09-23T19:59:27.171Z,17.25
2022-09-23T20:01:55.997Z,17.32
2022-09-23T20:04:24.558Z,17.42
2022-09-23T20:06:53.155Z,17.57
2022-09-23T20:09:22.177Z,17.11
2022-09-23T20:11:51.053Z,17.16
2022-09-23T20:14:20.611Z,17.12
2022-09-23T20:16:49.347Z,17.00
2022-09-23T20:19:18.055Z,17.32
2022-09-23T20:21:46.647Z,17.47
2022-09-23T20:24:15.341Z,17.52
2022-09-23T20:27:02.346Z,17.66
2022-09-23T20:29:31.004Z,16.96
2022-09-23T20:32:00.036Z,17.09
2022-09-23T20:34:34.656Z,17.08
2022-09-23T20:37:03.223Z,17.01
2022-09-23T20:39:31.671Z,17.04
2022-09-23T20:42:03.964Z,17.17
2022-09-23T20:44:32.512Z,17.20
2022-09-23T20:47:00.902Z,17.35
2022-09-23T20:49:30.245Z,17.19
2022-09-23T20:51:58.751Z,17.39
2022-09-23T20:54:33.506Z,17.23
2022-09-23T20:57:02.586Z,17.22
2022-09-23T20:59:31.137Z,17.07
2022-09-23T21:02:00.004Z,17.01
2022-09-23T21:04:29.631Z,17.30
2022-09-23T21:06:59.483Z,17.44
2022-09-23T21:09:28.850Z,17.35
2022-09-23T21:11:57.351Z,17.36
2022-09-23T21:14:28.796Z,17.40
2022-09-23T21:16:58.500Z,17.35
2022-09-23T21:19:29.149Z,17.65
2022-09-23T21:21:57.045Z,17.39
2022-09-23T21:25:00.397Z,17.45
2022-09-23T21:27:14.249Z,17.87
2022-09-23T21:29:42.791Z,17.62
2022-09-23T21:32:11.355Z,17.67
2022-09-23T21:34:40.274Z,17.48
2022-09-23T21:37:09.605Z,17.41
2022-09-23T21:39:38.163Z,17.39
2022-09-23T21:42:07.498Z,17.82
2022-09-23T21:44:36.305Z,17.65
2022-09-23T21:47:04.884Z,17.83
2022-09-23T21:49:33.697Z,17.94
2022-09-23T21:52:02.396Z,17.78
2022-09-23T21:54:32.476Z,17.84
2022-09-23T21:57:02.044Z,17.77
2022-09-23T21:59:30.437Z,17.80
2022-09-23T22:02:00.478Z,17.64
2022-09-23T22:04:29.155Z,17.78
2022-09-23T22:06:58.701Z,18.02
2022-09-23T22:09:27.668Z,17.98
2022-09-23T22:12:13.031Z,18.00
2022-09-23T22:14:42.283Z,17.93
2022-09-23T22:17:13.548Z,17.97
2022-09-23T22:19:46.695Z,18.00
2022-09-23T22:22:17.762Z,17.99
2022-09-23T22:24:48.275Z,17.81
2022-09-23T22:27:18.978Z,17.83
2022-09-23T22:30:06.015Z,17.76
2022-09-23T22:32:37.637Z,17.92
2022-09-23T22:35:06.686Z,17.82
2022-09-23T22:37:37.166Z,17.80
2022-09-23T22:40:11.501Z,17.71
2022-09-23T22:42:40.612Z,17.44
2022-09-23T22:45:10.686Z,17.46
2022-09-23T22:47:41.558Z,17.56
2022-09-23T22:50:11.226Z,17.67
2022-09-23T22:52:40.312Z,17.80
2022-09-23T22:55:09.389Z,17.96
2022-09-23T22:57:38.494Z,18.02
2022-09-23T23:00:09.077Z,17.97
2022-09-23T23:02:38.334Z,18.07
2022-09-23T23:05:07.359Z,18.06
2022-09-23T23:07:37.292Z,18.05
2022-09-23T23:10:10.194Z,18.16
2022-09-23T23:12:40.391Z,18.17
2022-09-23T23:15:12.966Z,17.95
2022-09-23T23:17:44.096Z,17.70
2022-09-23T23:20:12.509Z,17.64
2022-09-23T23:22:41.050Z,17.84
2022-09-23T23:25:10.657Z,18.07
2022-09-23T23:27:39.264Z,18.08
2022-09-23T23:30:08.944Z,18.06
2022-09-23T23:32:37.502Z,17.97
2022-09-23T23:35:06.811Z,18.26
2022-09-23T23:37:35.367Z,18.38
2022-09-23T23:40:05.100Z,18.59
2022-09-23T23:42:33.857Z,18.57
2022-09-23T23:45:02.709Z,18.56
2022-09-23T23:47:31.395Z,18.40
2022-09-23T23:49:59.956Z,18.33
2022-09-23T23:52:28.446Z,18.21
2022-09-23T23:54:57.270Z,17.89
2022-09-23T23:57:25.236Z,17.75
2022-09-23T23:59:53.768Z,17.66
